Time;durP1;ratioP1;P1;durP2;ratioP2;P2;SDS_P1;SDS_P2;PMS_P1;PMS_P2;Temp;Humidity;BMP_temperature;BMP_pressure;BME280_temperature;BME280_humidity;BME280_pressure;Samples;Min_cycle;Max_cycle;Signal;HPM_P1;HPM_P2
2022/01/09 00:01:36;;;;;;;20.08;13.18;;;4.10;99.90;;;;;;4893455;29;20044;-79
2022/01/09 00:04:02;;;;;;;19.98;13.88;;;4.10;99.90;;;;;;4908240;29;20044;-76
2022/01/09 00:06:27;;;;;;;19.67;12.65;;;4.10;99.90;;;;;;4915506;29;20456;-76
2022/01/09 00:08:53;;;;;;;17.73;12.30;;;4.20;99.90;;;;;;4922920;29;20627;-75
2022/01/09 00:11:25;;;;;;;18.50;12.93;;;4.10;99.90;;;;;;4922494;29;20052;-75
2022/01/09 00:13:54;;;;;;;19.00;12.77;;;4.10;99.90;;;;;;4895445;29;20056;-81
2022/01/09 00:16:21;;;;;;;20.55;12.65;;;4.10;99.90;;;;;;4915716;29;20884;-75
2022/01/09 00:18:47;;;;;;;20.67;13.25;;;4.10;99.90;;;;;;4914106;29;20055;-77
2022/01/09 00:21:13;;;;;;;19.45;13.18;;;4.10;99.90;;;;;;4915275;29;20084;-75
2022/01/09 00:23:39;;;;;;;22.65;13.60;;;4.10;99.90;;;;;;4913641;29;20095;-76
2022/01/09 00:26:06;;;;;;;20.15;12.60;;;4.10;99.90;;;;;;4915820;29;20039;-75
2022/01/09 00:28:32;;;;;;;19.92;12.82;;;4.20;99.90;;;;;;4914720;29;20071;-75
2022/01/09 00:30:58;;;;;;;21.33;13.98;;;4.20;99.90;;;;;;4912800;29;20577;-76
2022/01/09 00:33:24;;;;;;;20.38;13.35;;;4.10;99.90;;;;;;4893860;29;20427;-75
2022/01/09 00:35:50;;;;;;;20.67;13.43;;;4.20;99.90;;;;;;4903240;29;20075;-75
2022/01/09 00:38:17;;;;;;;23.10;14.00;;;4.10;99.90;;;;;;4914005;29;20103;-75
2022/01/09 00:40:43;;;;;;;24.65;14.90;;;4.10;99.90;;;;;;4907722;29;20059;-76
2022/01/09 00:43:09;;;;;;;19.70;13.10;;;4.10;99.90;;;;;;4907878;29;20406;-75
2022/01/09 00:45:39;;;;;;;20.52;13.05;;;4.10;99.90;;;;;;4915082;29;20123;-76
2022/01/09 00:48:06;;;;;;;20.58;13.43;;;4.20;99.90;;;;;;4904924;29;20430;-76
2022/01/09 00:50:33;;;;;;;23.23;14.10;;;4.10;99.90;;;;;;4899827;29;20131;-76
2022/01/09 00:52:59;;;;;;;27.25;15.77;;;4.20;99.90;;;;;;4899403;29;20051;-78
2022/01/09 00:55:25;;;;;;;22.15;14.45;;;4.20;99.90;;;;;;4918351;29;20043;-75
2022/01/09 00:57:51;;;;;;;25.02;15.95;;;4.20;99.90;;;;;;4927575;29;20063;-75
2022/01/09 01:00:17;;;;;;;24.77;16.05;;;4.20;99.90;;;;;;4918129;29;20135;-77
2022/01/09 01:02:42;;;;;;;26.02;16.33;;;4.20;99.90;;;;;;4917544;29;20461;-75
2022/01/09 01:05:09;;;;;;;25.63;15.82;;;4.10;99.90;;;;;;4887820;29;20052;-76
2022/01/09 01:07:34;;;;;;;24.13;16.42;;;4.20;99.90;;;;;;4906240;29;20072;-75
2022/01/09 01:10:00;;;;;;;29.92;16.95;;;4.20;99.90;;;;;;4907564;29;20487;-80
2022/01/09 01:12:28;;;;;;;26.23;17.27;;;4.20;99.90;;;;;;4894696;29;20270;-75
2022/01/09 01:14:54;;;;;;;23.85;16.15;;;4.20;99.90;;;;;;4915597;29;20406;-75
2022/01/09 01:17:21;;;;;;;25.98;17.02;;;4.20;99.90;;;;;;4915374;29;20051;-75
2022/01/09 01:19:47;;;;;;;25.40;16.42;;;4.20;99.90;;;;;;4918987;29;20061;-77
2022/01/09 01:22:14;;;;;;;27.77;17.83;;;4.20;99.90;;;;;;4905855;29;20398;-80
2022/01/09 01:24:44;;;;;;;27.67;17.58;;;4.20;99.90;;;;;;4907968;29;20079;-75
2022/01/09 01:27:10;;;;;;;31.92;19.52;;;4.20;99.90;;;;;;4919466;29;20098;-75
2022/01/09 01:29:37;;;;;;;33.05;19.98;;;4.20;99.90;;;;;;4928674;29;20529;-75
2022/01/09 01:32:03;;;;;;;43.13;21.50;;;4.20;99.90;;;;;;4898027;29;20086;-81
2022/01/09 01:34:29;;;;;;;38.10;21.38;;;4.20;99.90;;;;;;4912010;29;20135;-75
2022/01/09 01:36:55;;;;;;;36.35;20.83;;;4.30;99.90;;;;;;4904478;29;20545;-76
2022/01/09 01:39:21;;;;;;;37.33;19.83;;;4.20;99.90;;;;;;4894346;29;20087;-75
2022/01/09 01:41:47;;;;;;;37.85;21.95;;;4.20;99.90;;;;;;4919708;29;20043;-76
2022/01/09 01:44:13;;;;;;;33.33;20.42;;;4.20;99.90;;;;;;4894028;29;20055;-75
2022/01/09 01:46:39;;;;;;;34.70;20.27;;;4.20;99.90;;;;;;4914739;29;20048;-75
2022/01/09 01:49:06;;;;;;;39.78;22.48;;;4.20;99.90;;;;;;4903235;29;20052;-81
2022/01/09 01:51:34;;;;;;;33.25;19.63;;;4.20;99.90;;;;;;4917367;29;20084;-76
2022/01/09 01:54:04;;;;;;;28.60;18.70;;;4.30;99.90;;;;;;4875537;29;20048;-75
2022/01/09 01:56:30;;;;;;;38.55;22.55;;;4.20;99.90;;;;;;4904242;29;20048;-75
2022/01/09 01:58:56;;;;;;;32.55;20.42;;;4.20;99.90;;;;;;4879953;29;20052;-75
2022/01/09 02:01:22;;;;;;;34.03;20.02;;;4.20;99.90;;;;;;4898333;29;20051;-75
2022/01/09 02:03:48;;;;;;;34.92;21.73;;;4.20;99.90;;;;;;4914468;29;20052;-76
2022/01/09 02:06:15;;;;;;;39.20;22.10;;;4.20;99.90;;;;;;4909524;29;20059;-74
2022/01/09 02:08:42;;;;;;;38.22;20.58;;;4.30;99.90;;;;;;4906035;29;20118;-75
2022/01/09 02:11:11;;;;;;;38.85;21.80;;;4.30;99.90;;;;;;4913807;29;20568;-81
2022/01/09 02:13:43;;;;;;;36.15;21.73;;;4.30;99.90;;;;;;4914741;29;20105;-77
2022/01/09 02:16:16;;;;;;;34.97;20.83;;;4.30;99.90;;;;;;4905776;29;20060;-82
2022/01/09 02:18:43;;;;;;;34.78;20.88;;;4.30;99.90;;;;;;4881618;29;20063;-75
2022/01/09 02:21:10;;;;;;;43.60;22.63;;;4.30;99.90;;;;;;4913663;29;20048;-84
2022/01/09 02:23:38;;;;;;;39.40;21.98;;;4.30;99.90;;;;;;4919861;29;20122;-75
2022/01/09 02:26:04;;;;;;;44.13;22.60;;;4.30;99.90;;;;;;4896526;29;20056;-75
2022/01/09 02:28:29;;;;;;;39.58;21.08;;;4.30;99.90;;;;;;4918885;29;20043;-76
2022/01/09 02:30:55;;;;;;;38.05;22.05;;;4.30;99.90;;;;;;4915634;29;20403;-76
2022/01/09 02:33:21;;;;;;;35.65;20.13;;;4.30;99.90;;;;;;4913218;29;20162;-75
2022/01/09 02:35:51;;;;;;;38.25;21.63;;;4.30;99.90;;;;;;4899324;29;20062;-76
2022/01/09 02:38:18;;;;;;;34.78;19.88;;;4.30;99.90;;;;;;4900359;29;20503;-77
2022/01/09 02:40:50;;;;;;;38.00;20.65;;;4.40;99.90;;;;;;4911378;29;20055;-75
2022/01/09 02:43:16;;;;;;;47.20;23.23;;;4.40;99.90;;;;;;4920080;29;20048;-75
2022/01/09 02:45:44;;;;;;;43.22;21.95;;;4.40;99.90;;;;;;4900395;29;20413;-76
2022/01/09 02:48:11;;;;;;;52.45;23.30;;;4.40;99.90;;;;;;4895524;29;20148;-76
2022/01/09 02:50:41;;;;;;;33.80;18.05;;;4.40;99.90;;;;;;4899826;29;20533;-78
2022/01/09 02:53:15;;;;;;;36.92;18.02;;;4.40;99.90;;;;;;4886789;29;20066;-77
2022/01/09 02:55:41;;;;;;;30.83;15.75;;;4.50;99.90;;;;;;4894014;29;20052;-75
2022/01/09 02:58:08;;;;;;;41.40;16.70;;;4.50;99.90;;;;;;4902755;29;20056;-77
2022/01/09 03:00:40;;;;;;;44.60;18.40;;;4.60;99.90;;;;;;4912134;29;20091;-76
2022/01/09 03:03:06;;;;;;;29.25;14.57;;;4.60;99.90;;;;;;4895964;29;20182;-76
2022/01/09 03:05:32;;;;;;;31.33;14.73;;;4.70;99.90;;;;;;4911849;29;20060;-76
2022/01/09 03:07:59;;;;;;;26.83;13.02;;;4.70;99.90;;;;;;4867202;29;20061;-76
2022/01/09 03:10:25;;;;;;;35.15;13.93;;;4.70;99.90;;;;;;4904613;29;20434;-76
2022/01/09 03:12:52;;;;;;;29.58;13.35;;;4.80;99.90;;;;;;4881895;29;20438;-75
2022/01/09 03:15:18;;;;;;;38.10;14.43;;;4.80;99.90;;;;;;4894867;29;20060;-83
2022/01/09 03:17:44;;;;;;;30.80;12.95;;;4.90;99.90;;;;;;4919078;29;20079;-75
2022/01/09 03:20:18;;;;;;;30.98;12.32;;;4.90;99.90;;;;;;4912760;29;20052;-75
2022/01/09 03:22:44;;;;;;;30.33;11.63;;;4.90;99.90;;;;;;4913036;29;20083;-75
2022/01/09 03:25:11;;;;;;;35.22;10.65;;;4.90;99.90;;;;;;4882057;29;20520;-75
2022/01/09 03:27:38;;;;;;;28.95;9.00;;;5.00;99.90;;;;;;4917504;29;20056;-77
2022/01/09 03:30:07;;;;;;;25.38;7.25;;;5.10;99.90;;;;;;4917600;29;20040;-78
2022/01/09 03:32:33;;;;;;;31.65;7.22;;;5.10;99.90;;;;;;4903459;29;20092;-76
2022/01/09 03:34:59;;;;;;;31.20;7.60;;;5.10;99.90;;;;;;4913114;29;20056;-75
2022/01/09 03:37:25;;;;;;;27.58;7.28;;;5.20;99.90;;;;;;4912335;29;20442;-75
2022/01/09 03:39:52;;;;;;;24.90;6.00;;;5.20;99.90;;;;;;4901093;29;20075;-74
2022/01/09 03:42:18;;;;;;;31.42;7.18;;;5.30;99.90;;;;;;4901197;29;20056;-77
2022/01/09 03:44:44;;;;;;;34.95;6.57;;;5.40;99.90;;;;;;4894401;29;20058;-75
2022/01/09 03:47:09;;;;;;;38.55;7.63;;;5.40;99.90;;;;;;4875936;29;20045;-75
2022/01/09 03:49:36;;;;;;;49.75;6.70;;;5.50;99.90;;;;;;4927269;29;20048;-76
2022/01/09 03:52:02;;;;;;;40.03;6.45;;;5.40;99.90;;;;;;4919842;29;20422;-76
2022/01/09 03:54:28;;;;;;;38.88;7.63;;;5.60;99.90;;;;;;4894892;29;20111;-77
2022/01/09 03:56:53;;;;;;;37.63;6.82;;;5.70;99.90;;;;;;4903078;29;20052;-76
2022/01/09 03:59:19;;;;;;;39.75;8.80;;;5.70;99.90;;;;;;4916901;29;20044;-76
2022/01/09 04:01:46;;;;;;;52.08;7.75;;;5.70;99.90;;;;;;4916806;29;20530;-76
2022/01/09 04:04:12;;;;;;;48.45;8.20;;;5.70;99.90;;;;;;4928329;29;20048;-77
2022/01/09 04:06:49;;;;;;;36.78;7.07;;;5.70;99.90;;;;;;4914457;29;20052;-76
2022/01/09 04:09:20;;;;;;;49.55;6.95;;;5.60;99.90;;;;;;4899593;29;20060;-75
2022/01/09 04:11:48;;;;;;;51.08;6.95;;;5.70;99.90;;;;;;4911738;29;20052;-75
2022/01/09 04:14:14;;;;;;;50.22;6.68;;;5.70;99.90;;;;;;4915296;29;20072;-75
2022/01/09 04:16:40;;;;;;;65.18;6.13;;;5.70;99.90;;;;;;4915460;29;20051;-76
2022/01/09 04:19:10;;;;;;;54.35;6.75;;;5.80;99.90;;;;;;4889751;29;20131;-76
2022/01/09 04:21:35;;;;;;;34.70;5.10;;;5.90;99.90;;;;;;4899982;29;20041;-76
2022/01/09 04:24:01;;;;;;;60.47;5.97;;;5.80;99.90;;;;;;4886939;29;20554;-76
2022/01/09 04:26:27;;;;;;;63.05;6.88;;;5.90;99.90;;;;;;4877864;29;20060;-82
2022/01/09 04:28:52;;;;;;;58.83;5.93;;;5.90;99.90;;;;;;4897013;29;20057;-76
2022/01/09 04:31:18;;;;;;;62.08;5.82;;;5.80;99.90;;;;;;4902258;29;20053;-76
2022/01/09 04:33:44;;;;;;;61.25;8.25;;;5.80;99.90;;;;;;4899507;29;20100;-76
2022/01/09 04:36:09;;;;;;;44.72;6.57;;;5.80;99.90;;;;;;4909062;29;20051;-76
2022/01/09 04:38:35;;;;;;;48.58;7.60;;;5.80;99.90;;;;;;4912182;29;20044;-76
2022/01/09 04:41:01;;;;;;;45.15;6.22;;;5.80;99.90;;;;;;4885482;29;20139;-75
2022/01/09 04:43:28;;;;;;;65.32;7.57;;;5.80;99.90;;;;;;4897821;29;20056;-76
2022/01/09 04:45:54;;;;;;;52.85;5.75;;;5.80;99.90;;;;;;4902003;29;20055;-76
2022/01/09 04:48:19;;;;;;;39.17;5.32;;;5.80;99.90;;;;;;4883092;29;20044;-76
2022/01/09 04:50:47;;;;;;;57.22;6.28;;;5.90;99.90;;;;;;4910154;29;20051;-76
2022/01/09 04:53:12;;;;;;;56.92;5.68;;;5.80;99.90;;;;;;4904247;29;20127;-77
2022/01/09 04:55:41;;;;;;;42.53;4.53;;;5.80;99.90;;;;;;4889340;29;20450;-77
2022/01/09 04:58:08;;;;;;;34.42;4.22;;;5.80;99.90;;;;;;4898540;29;20058;-77
2022/01/09 05:00:35;;;;;;;53.85;6.15;;;5.80;99.90;;;;;;4910300;29;20048;-76
2022/01/09 05:03:01;;;;;;;47.22;5.63;;;5.80;99.90;;;;;;4912507;29;20040;-76
2022/01/09 05:05:26;;;;;;;51.38;5.13;;;5.80;99.90;;;;;;4882412;29;20039;-76
2022/01/09 05:07:52;;;;;;;46.60;4.63;;;5.80;99.90;;;;;;4906675;29;20047;-76
2022/01/09 05:10:18;;;;;;;45.83;4.72;;;5.80;99.90;;;;;;4904080;29;20104;-77
2022/01/09 05:12:44;;;;;;;40.08;4.10;;;5.80;99.90;;;;;;4900077;29;20490;-76
2022/01/09 05:15:10;;;;;;;39.67;4.25;;;5.70;99.90;;;;;;4906140;29;20058;-76
2022/01/09 05:17:36;;;;;;;33.78;4.45;;;5.70;99.90;;;;;;4904178;29;20071;-77
2022/01/09 05:20:03;;;;;;;36.45;5.32;;;5.70;99.90;;;;;;4900330;29;20071;-76
2022/01/09 05:22:30;;;;;;;30.50;4.57;;;5.80;99.90;;;;;;4884803;29;20051;-77
2022/01/09 05:24:58;;;;;;;38.08;4.95;;;5.70;99.90;;;;;;4889185;29;20828;-77
2022/01/09 05:27:25;;;;;;;43.55;5.05;;;5.70;99.90;;;;;;4898370;29;20044;-76
2022/01/09 05:29:51;;;;;;;39.80;3.95;;;5.70;99.90;;;;;;4909778;29;20052;-76
2022/01/09 05:32:17;;;;;;;35.30;4.43;;;5.60;99.90;;;;;;4915091;29;20088;-77
2022/01/09 05:34:43;;;;;;;30.83;5.07;;;5.60;99.90;;;;;;4899249;29;20060;-76
2022/01/09 05:37:09;;;;;;;32.92;4.07;;;5.60;99.90;;;;;;4884426;29;20048;-76
2022/01/09 05:39:35;;;;;;;38.13;4.50;;;5.50;99.90;;;;;;4898173;29;20058;-77
2022/01/09 05:42:04;;;;;;;29.75;4.00;;;5.50;99.90;;;;;;4902702;29;20037;-76
2022/01/09 05:44:31;;;;;;;33.28;4.03;;;5.40;99.90;;;;;;4897302;29;20096;-77
2022/01/09 05:46:58;;;;;;;30.73;4.60;;;5.50;99.90;;;;;;4900611;29;20553;-77
2022/01/09 05:49:23;;;;;;;33.90;3.97;;;5.40;99.90;;;;;;4901090;29;20048;-76
2022/01/09 05:51:49;;;;;;;24.00;4.50;;;5.40;99.90;;;;;;4910707;29;20060;-76
2022/01/09 05:54:15;;;;;;;32.75;4.32;;;5.30;99.90;;;;;;4914826;29;20118;-76
2022/01/09 05:56:41;;;;;;;35.38;6.50;;;5.30;99.90;;;;;;4893228;29;20573;-76
2022/01/09 05:59:07;;;;;;;33.47;4.40;;;5.30;99.90;;;;;;4866683;29;20056;-76
2022/01/09 06:01:33;;;;;;;25.48;3.95;;;5.30;99.90;;;;;;4917275;29;20049;-78
2022/01/09 06:03:58;;;;;;;33.30;4.50;;;5.20;99.90;;;;;;4918214;29;20513;-76
2022/01/09 06:06:24;;;;;;;30.10;4.43;;;5.20;99.90;;;;;;4891904;29;20064;-76
2022/01/09 06:08:49;;;;;;;32.53;5.95;;;5.20;99.90;;;;;;4897199;29;20063;-76
2022/01/09 06:11:15;;;;;;;30.35;5.63;;;5.10;99.90;;;;;;4906658;29;20409;-76
2022/01/09 06:13:41;;;;;;;34.85;3.78;;;5.10;99.90;;;;;;4908734;29;20044;-82
2022/01/09 06:16:07;;;;;;;32.33;3.97;;;5.10;99.90;;;;;;4905927;29;20048;-76
2022/01/09 06:18:33;;;;;;;21.80;2.92;;;5.10;99.90;;;;;;4891961;29;20048;-77
2022/01/09 06:20:58;;;;;;;26.00;3.05;;;5.10;99.90;;;;;;4896400;29;20486;-77
2022/01/09 06:23:24;;;;;;;30.85;3.40;;;5.10;99.90;;;;;;4891834;29;20463;-76
2022/01/09 06:25:50;;;;;;;20.77;3.20;;;5.00;99.90;;;;;;4878371;29;20059;-77
2022/01/09 06:28:16;;;;;;;32.08;3.20;;;5.00;99.90;;;;;;4878874;29;20082;-77
2022/01/09 06:30:42;;;;;;;40.17;4.65;;;5.00;99.90;;;;;;4916762;29;20048;-82
2022/01/09 06:33:09;;;;;;;27.80;3.53;;;5.00;99.90;;;;;;4899661;29;20059;-77
2022/01/09 06:35:35;;;;;;;34.30;3.25;;;5.00;99.90;;;;;;4884141;29;20044;-77
2022/01/09 06:38:01;;;;;;;30.33;3.67;;;4.90;99.90;;;;;;4906346;29;20196;-77
2022/01/09 06:40:27;;;;;;;27.60;2.97;;;5.00;99.90;;;;;;4892857;29;20506;-78
2022/01/09 06:42:52;;;;;;;27.50;2.85;;;4.90;99.90;;;;;;4903379;29;20052;-77
2022/01/09 06:45:18;;;;;;;28.52;3.08;;;5.00;99.90;;;;;;4912058;29;20414;-77
2022/01/09 06:47:44;;;;;;;35.05;4.45;;;5.00;99.90;;;;;;4915005;29;20119;-82
2022/01/09 06:50:10;;;;;;;23.60;2.78;;;5.00;99.90;;;;;;4910733;29;20059;-77
2022/01/09 06:52:37;;;;;;;29.52;3.20;;;5.00;99.90;;;;;;4911613;29;20052;-77
2022/01/09 06:55:03;;;;;;;22.55;3.70;;;5.00;99.90;;;;;;4901758;29;20080;-77
2022/01/09 06:57:29;;;;;;;29.02;3.05;;;5.00;99.90;;;;;;4870180;29;20052;-77
2022/01/09 06:59:55;;;;;;;20.42;3.00;;;5.00;99.90;;;;;;4898972;29;20063;-77
2022/01/09 07:02:20;;;;;;;27.45;2.58;;;5.00;99.90;;;;;;4880128;29;20055;-77
2022/01/09 07:04:46;;;;;;;26.17;3.20;;;4.90;99.90;;;;;;4902966;29;20053;-81
2022/01/09 07:07:12;;;;;;;19.63;3.45;;;4.90;99.90;;;;;;4899673;29;20044;-77
2022/01/09 07:09:38;;;;;;;29.48;3.38;;;4.90;99.90;;;;;;4911535;29;20060;-78
2022/01/09 07:12:05;;;;;;;24.20;3.22;;;4.90;99.90;;;;;;4901978;29;20055;-77
2022/01/09 07:14:31;;;;;;;25.75;2.80;;;4.90;99.90;;;;;;4915390;29;20383;-77
2022/01/09 07:16:57;;;;;;;29.42;2.90;;;4.90;99.90;;;;;;4896668;29;20059;-78
2022/01/09 07:19:22;;;;;;;18.73;2.40;;;4.90;99.90;;;;;;4908319;29;20040;-77
2022/01/09 07:21:48;;;;;;;18.08;3.22;;;4.80;99.90;;;;;;4886222;29;20050;-78
2022/01/09 07:24:13;;;;;;;20.17;2.67;;;4.80;99.90;;;;;;4910811;29;20552;-77
2022/01/09 07:26:39;;;;;;;29.05;2.33;;;4.80;99.90;;;;;;4887890;29;20040;-77
2022/01/09 07:29:05;;;;;;;26.77;3.10;;;4.80;99.90;;;;;;4885169;29;20052;-76
2022/01/09 07:31:30;;;;;;;14.85;2.15;;;4.70;99.90;;;;;;4913210;29;20054;-77
2022/01/09 07:33:56;;;;;;;22.35;2.72;;;4.70;99.90;;;;;;4910405;29;20068;-77
2022/01/09 07:36:22;;;;;;;18.60;2.55;;;4.80;99.90;;;;;;4917693;29;20059;-77
2022/01/09 07:38:47;;;;;;;27.90;2.55;;;4.80;99.90;;;;;;4884747;29;20569;-79
2022/01/09 07:41:14;;;;;;;26.33;3.03;;;4.70;99.90;;;;;;4916658;29;20621;-77
2022/01/09 07:43:41;;;;;;;20.25;3.78;;;4.70;99.90;;;;;;4881268;29;20100;-77
2022/01/09 07:46:07;;;;;;;26.67;3.47;;;4.70;99.90;;;;;;4908084;29;20076;-77
2022/01/09 07:48:33;;;;;;;36.45;11.75;;;4.60;99.90;;;;;;4915072;29;20090;-78
2022/01/09 07:50:58;;;;;;;20.65;3.15;;;4.70;99.90;;;;;;4899945;29;20490;-77
2022/01/09 07:53:24;;;;;;;19.67;4.40;;;4.70;99.90;;;;;;4916702;29;20055;-77
2022/01/09 07:55:51;;;;;;;27.42;7.05;;;4.60;99.90;;;;;;4886586;29;20056;-77
2022/01/09 07:58:18;;;;;;;22.88;3.42;;;4.60;99.90;;;;;;4903943;29;20056;-77
2022/01/09 08:00:45;;;;;;;15.93;3.13;;;4.60;99.90;;;;;;4903616;29;20075;-77
2022/01/09 08:03:11;;;;;;;23.00;3.75;;;4.60;99.90;;;;;;4899942;29;20068;-77
2022/01/09 08:05:37;;;;;;;15.98;2.83;;;4.50;99.90;;;;;;4905877;29;20050;-78
2022/01/09 08:08:03;;;;;;;11.73;2.25;;;4.50;99.90;;;;;;4898639;29;20060;-79
2022/01/09 08:10:29;;;;;;;16.17;3.00;;;4.50;99.90;;;;;;4897908;29;20456;-77
2022/01/09 08:12:54;;;;;;;24.00;3.88;;;4.50;99.90;;;;;;4891620;29;20052;-77
2022/01/09 08:15:20;;;;;;;16.83;2.67;;;4.50;99.90;;;;;;4908635;29;20075;-77
2022/01/09 08:17:46;;;;;;;20.83;3.53;;;4.40;99.90;;;;;;4916701;29;20040;-77
2022/01/09 08:20:16;;;;;;;12.93;1.98;;;4.40;99.90;;;;;;4898752;29;20055;-78
2022/01/09 08:22:42;;;;;;;12.43;2.17;;;4.40;99.90;;;;;;4899603;29;20383;-78
2022/01/09 08:25:13;;;;;;;15.63;2.63;;;4.40;99.90;;;;;;4901022;29;20064;-79
2022/01/09 08:27:39;;;;;;;13.18;2.35;;;4.40;99.90;;;;;;4903923;29;20048;-79
2022/01/09 08:30:06;;;;;;;15.75;2.03;;;4.30;99.90;;;;;;4883593;29;20052;-77
2022/01/09 08:32:32;;;;;;;14.05;1.95;;;4.40;99.90;;;;;;4880818;29;20562;-77
2022/01/09 08:34:58;;;;;;;18.08;2.20;;;4.40;99.90;;;;;;4893186;29;20150;-78
2022/01/09 08:37:24;;;;;;;14.05;2.15;;;4.40;99.90;;;;;;4905393;29;20126;-77
2022/01/09 08:39:50;;;;;;;11.13;1.80;;;4.40;99.90;;;;;;4905846;29;20056;-77
2022/01/09 08:42:15;;;;;;;16.20;2.78;;;4.50;99.90;;;;;;4902854;29;20048;-77
2022/01/09 08:44:41;;;;;;;15.95;2.40;;;4.40;99.90;;;;;;4898805;29;20052;-77
2022/01/09 08:47:07;;;;;;;15.05;2.10;;;4.40;99.90;;;;;;4897936;29;20060;-79
2022/01/09 08:49:33;;;;;;;15.13;2.08;;;4.50;99.90;;;;;;4887429;29;20485;-78
2022/01/09 08:51:58;;;;;;;13.75;2.03;;;4.50;99.90;;;;;;4898801;29;20117;-78
2022/01/09 08:54:24;;;;;;;13.75;2.42;;;4.60;99.90;;;;;;4899411;29;20059;-78
2022/01/09 08:56:50;;;;;;;15.10;3.25;;;4.60;99.90;;;;;;4900045;29;20067;-77
2022/01/09 08:59:16;;;;;;;21.25;2.55;;;4.60;99.90;;;;;;4904336;29;20052;-77
2022/01/09 09:01:42;;;;;;;18.63;2.45;;;4.60;99.90;;;;;;4898755;29;20048;-77
2022/01/09 09:04:08;;;;;;;17.30;2.60;;;4.60;99.90;;;;;;4907519;29;20048;-79
2022/01/09 09:06:34;;;;;;;20.02;2.20;;;4.60;99.90;;;;;;4928181;29;20079;-78
2022/01/09 09:08:59;;;;;;;13.60;2.38;;;4.60;99.90;;;;;;4898271;29;20056;-78
2022/01/09 09:11:25;;;;;;;20.08;4.43;;;4.60;99.90;;;;;;4898100;29;20044;-77
2022/01/09 09:13:51;;;;;;;16.23;2.58;;;4.60;99.90;;;;;;4905465;29;20047;-77
2022/01/09 09:16:17;;;;;;;21.88;2.63;;;4.60;99.90;;;;;;4906426;29;20505;-79
2022/01/09 09:18:43;;;;;;;22.77;3.63;;;4.70;99.90;;;;;;4898270;29;20491;-79
2022/01/09 09:21:10;;;;;;;19.77;3.80;;;4.70;99.90;;;;;;4882623;29;20127;-79
2022/01/09 09:23:35;;;;;;;25.70;3.63;;;4.70;99.90;;;;;;4898032;29;20450;-78
2022/01/09 09:26:01;;;;;;;15.38;2.53;;;4.70;99.90;;;;;;4882691;29;20056;-78
2022/01/09 09:28:27;;;;;;;16.77;2.25;;;4.80;99.90;;;;;;4883287;29;20129;-78
2022/01/09 09:30:53;;;;;;;11.63;2.50;;;4.80;99.90;;;;;;4886156;29;20083;-79
2022/01/09 09:33:19;;;;;;;11.85;2.30;;;4.80;99.90;;;;;;4894043;29;20091;-78
2022/01/09 09:35:44;;;;;;;16.55;2.10;;;4.80;99.90;;;;;;4900288;29;20083;-77
2022/01/09 09:38:10;;;;;;;25.55;2.80;;;4.80;99.90;;;;;;4888438;29;20044;-83
2022/01/09 09:40:36;;;;;;;17.35;2.17;;;4.80;99.90;;;;;;4919383;29;20048;-78
2022/01/09 09:43:02;;;;;;;22.20;3.00;;;4.80;99.90;;;;;;4898009;29;20107;-79
2022/01/09 09:45:28;;;;;;;13.65;2.00;;;4.80;99.90;;;;;;4898076;29;20264;-80
2022/01/09 09:47:54;;;;;;;11.95;2.03;;;4.80;99.90;;;;;;4898585;29;20052;-77
2022/01/09 09:50:21;;;;;;;14.48;3.35;;;4.80;99.90;;;;;;4882937;29;20141;-77
2022/01/09 09:52:48;;;;;;;20.35;3.60;;;4.80;99.90;;;;;;4903472;29;20408;-77
2022/01/09 09:55:15;;;;;;;15.75;2.83;;;4.80;99.90;;;;;;4896367;29;20059;-83
2022/01/09 09:57:42;;;;;;;15.52;3.60;;;4.80;99.90;;;;;;4910528;29;20063;-77
2022/01/09 10:00:11;;;;;;;10.05;2.08;;;4.80;99.90;;;;;;4879465;29;20676;-79
2022/01/09 10:02:52;;;;;;;16.83;2.45;;;4.80;99.90;;;;;;4903594;29;20059;-82
2022/01/09 10:05:20;;;;;;;15.13;2.00;;;4.80;99.90;;;;;;4893133;29;20056;-80
2022/01/09 10:07:47;;;;;;;8.85;2.42;;;4.80;99.90;;;;;;4897926;29;20087;-77
2022/01/09 10:10:18;;;;;;;15.25;2.70;;;4.80;99.90;;;;;;4882457;29;20562;-84
2022/01/09 10:12:45;;;;;;;8.77;1.80;;;4.90;99.90;;;;;;4896840;29;20164;-78
2022/01/09 10:15:19;;;;;;;9.55;1.90;;;4.90;99.90;;;;;;4898455;29;20048;-78
2022/01/09 10:17:47;;;;;;;11.32;2.28;;;4.90;99.90;;;;;;4896598;29;20056;-78
2022/01/09 10:20:19;;;;;;;10.27;2.05;;;4.90;99.90;;;;;;4895890;29;20048;-78
2022/01/09 10:22:53;;;;;;;11.75;3.15;;;4.90;99.90;;;;;;4884463;29;20455;-78
2022/01/09 10:25:30;;;;;;;9.00;2.20;;;4.90;99.90;;;;;;4896053;29;20103;-78
2022/01/09 10:28:20;;;;;;;5.05;1.65;;;4.90;99.90;;;;;;4899898;29;20397;-80
2022/01/09 10:30:49;;;;;;;9.30;1.98;;;4.90;99.90;;;;;;4899530;29;20083;-76
2022/01/09 10:33:26;;;;;;;9.13;2.10;;;5.00;99.90;;;;;;4900441;29;20059;-77
2022/01/09 10:35:52;;;;;;;10.40;2.08;;;5.00;99.90;;;;;;4906689;29;20072;-79
2022/01/09 10:38:27;;;;;;;12.98;3.72;;;5.00;99.90;;;;;;4895941;29;20358;-84
2022/01/09 10:40:58;;;;;;;5.50;1.47;;;5.00;99.90;;;;;;4909465;29;20048;-79
2022/01/09 10:43:31;;;;;;;16.40;2.63;;;5.00;99.90;;;;;;4895287;29;20047;-80
2022/01/09 10:46:01;;;;;;;10.18;2.40;;;5.10;99.90;;;;;;4913159;29;20055;-83
2022/01/09 10:48:42;;;;;;;12.55;2.80;;;5.10;99.90;;;;;;4865593;29;20442;-81
2022/01/09 10:51:10;;;;;;;11.38;2.40;;;5.10;99.90;;;;;;4909665;29;20083;-80
2022/01/09 10:53:41;;;;;;;7.10;2.58;;;5.10;99.90;;;;;;4913262;29;20052;-78
2022/01/09 10:56:18;;;;;;;11.73;1.90;;;5.20;99.90;;;;;;4897260;29;20062;-78
2022/01/09 10:58:50;;;;;;;9.73;3.15;;;5.20;99.90;;;;;;4895721;29;20051;-79
2022/01/09 11:01:25;;;;;;;13.63;2.30;;;5.20;99.90;;;;;;4896771;29;20087;-79
2022/01/09 11:03:58;;;;;;;8.13;1.90;;;5.30;99.90;;;;;;4883207;29;20056;-77
2022/01/09 11:06:31;;;;;;;8.30;3.17;;;5.30;99.90;;;;;;4898101;29;20131;-76
2022/01/09 11:08:58;;;;;;;12.35;3.67;;;5.30;99.90;;;;;;4898334;29;20375;-79
2022/01/09 11:13:57;;;;;;;12.25;1.70;;;5.50;99.90;;;;;;4899203;29;20055;-79
2022/01/09 11:16:41;;;;;;;17.60;1.70;;;5.50;99.90;;;;;;4893211;29;20109;-86
2022/01/09 11:19:06;;;;;;;9.00;1.63;;;5.60;99.90;;;;;;4898178;29;20516;-80
2022/01/09 11:21:33;;;;;;;13.50;2.63;;;5.70;99.90;;;;;;4897113;29;20127;-80
2022/01/09 11:24:10;;;;;;;12.15;2.45;;;5.70;99.90;;;;;;4887974;29;20517;-80
2022/01/09 11:27:15;;;;;;;8.50;2.10;;;5.80;99.90;;;;;;4899214;29;20054;-78
2022/01/09 11:30:11;;;;;;;16.10;2.78;;;5.90;99.90;;;;;;4901788;29;20098;-79
2022/01/09 11:33:04;;;;;;;11.85;3.08;;;6.00;99.90;;;;;;4912050;29;20052;-80
2022/01/09 11:36:08;;;;;;;9.10;2.03;;;6.10;99.90;;;;;;4900280;29;20059;-81
2022/01/09 11:39:02;;;;;;;13.38;2.20;;;6.10;99.90;;;;;;4890153;29;20052;-78
2022/01/09 11:41:31;;;;;;;13.75;2.30;;;6.10;99.90;;;;;;4899127;29;20060;-81
2022/01/09 11:44:08;;;;;;;15.13;2.63;;;6.10;99.90;;;;;;4884185;29;20406;-81
2022/01/09 11:46:56;;;;;;;14.40;2.85;;;6.20;99.90;;;;;;4899743;29;20067;-78
2022/01/09 11:49:22;;;;;;;11.23;2.30;;;6.20;99.90;;;;;;4901924;29;20048;-78
2022/01/09 11:51:57;;;;;;;16.20;2.88;;;6.30;99.90;;;;;;4895406;29;20074;-78
2022/01/09 11:54:24;;;;;;;7.38;2.00;;;6.30;99.90;;;;;;4896681;29;20119;-78
2022/01/09 11:57:08;;;;;;;13.02;2.42;;;6.30;99.90;;;;;;4915871;29;20550;-79
2022/01/09 11:59:47;;;;;;;12.45;1.88;;;6.40;99.90;;;;;;4896836;29;20048;-78
2022/01/09 12:02:15;;;;;;;16.58;3.53;;;6.40;99.90;;;;;;4900425;29;20048;-77
2022/01/09 12:04:41;;;;;;;9.40;1.75;;;6.40;99.90;;;;;;4890840;29;20047;-78
2022/01/09 12:07:12;;;;;;;9.70;2.30;;;6.40;99.90;;;;;;4899238;29;20598;-77
2022/01/09 12:09:41;;;;;;;19.55;5.90;;;6.40;99.90;;;;;;4917151;29;20367;-79
2022/01/09 12:12:16;;;;;;;13.65;3.42;;;6.30;99.90;;;;;;4916537;29;20058;-77
2022/01/09 12:14:42;;;;;;;10.60;3.03;;;6.30;99.90;;;;;;4882616;29;20510;-77
2022/01/09 12:17:25;;;;;;;20.05;4.97;;;6.20;99.90;;;;;;4903569;29;20125;-76
2022/01/09 12:20:09;;;;;;;11.75;3.65;;;6.20;99.90;;;;;;4894952;29;20071;-77
2022/01/09 12:23:04;;;;;;;18.23;3.88;;;6.20;99.90;;;;;;4895632;29;20494;-77
2022/01/09 12:25:35;;;;;;;11.52;3.72;;;6.10;99.90;;;;;;4899367;29;20036;-83
2022/01/09 12:28:11;;;;;;;7.47;1.90;;;6.00;99.90;;;;;;4899139;29;20072;-80
2022/01/09 12:30:44;;;;;;;24.02;7.93;;;6.00;99.90;;;;;;4901773;29;20053;-79
2022/01/09 12:33:16;;;;;;;16.25;3.35;;;5.90;99.90;;;;;;4914595;29;20048;-76
2022/01/09 12:35:47;;;;;;;12.90;3.20;;;5.90;99.90;;;;;;4881132;29;20479;-82
2022/01/09 12:38:17;;;;;;;11.55;2.20;;;5.90;99.90;;;;;;4889134;29;20060;-79
2022/01/09 12:40:44;;;;;;;10.30;1.98;;;5.90;99.90;;;;;;4918712;29;20107;-80
2022/01/09 12:43:11;;;;;;;11.40;2.33;;;5.90;99.90;;;;;;4903572;29;20401;-78
2022/01/09 12:45:41;;;;;;;5.30;1.70;;;5.90;99.90;;;;;;4914574;29;20096;-78
2022/01/09 12:48:07;;;;;;;7.60;1.80;;;6.00;99.90;;;;;;4900787;29;20058;-77
2022/01/09 12:50:38;;;;;;;12.00;1.85;;;6.00;99.90;;;;;;4884888;29;20043;-83
2022/01/09 12:53:30;;;;;;;12.45;2.08;;;6.20;99.90;;;;;;4917106;29;20052;-78